Time;durP1;ratioP1;P1;durP2;ratioP2;P2;SDS_P1;SDS_P2;PMS_P1;PMS_P2;Temp;Humidity;BMP_temperature;BMP_pressure;BME280_temperature;BME280_humidity;BME280_pressure;Samples;Min_cycle;Max_cycle;Signal;HPM_P1;HPM_P2
2022/11/03 00:01:40;;;;;;;12.82;5.72;;;;;;;;;;5062922;28;20217;-71
2022/11/03 00:04:08;;;;;;;8.95;5.20;;;;;;;;;;5062723;28;20201;-71
2022/11/03 00:06:34;;;;;;;8.18;5.57;;;;;;;;;;5062895;28;20197;-71
2022/11/03 00:09:01;;;;;;;5.93;4.80;;;;;;;;;;5062587;28;20505;-71
2022/11/03 00:11:28;;;;;;;9.52;5.25;;;;;;;;;;5062850;28;20193;-71
2022/11/03 00:13:54;;;;;;;8.32;5.78;;;;;;;;;;5062827;28;20267;-71
2022/11/03 00:16:21;;;;;;;9.10;5.65;;;;;;;;;;5062451;28;20197;-71
2022/11/03 00:18:48;;;;;;;8.07;5.15;;;;;;;;;;5062277;28;20216;-71
2022/11/03 00:21:14;;;;;;;7.53;5.60;;;;;;;;;;5062680;28;20288;-71
2022/11/03 00:23:42;;;;;;;6.95;5.28;;;;;;;;;;5062573;28;20189;-71
2022/11/03 00:26:09;;;;;;;7.28;4.85;;;;;;;;;;5062603;28;20197;-71
2022/11/03 00:28:36;;;;;;;8.52;4.90;;;;;;;;;;5061667;28;20550;-71
2022/11/03 00:31:06;;;;;;;9.90;5.35;;;;;;;;;;5062299;28;20426;-71
2022/11/03 00:33:32;;;;;;;7.68;4.97;;;;;;;;;;5062356;28;20196;-71
2022/11/03 00:36:00;;;;;;;5.90;4.63;;;;;;;;;;5062380;28;20226;-71
2022/11/03 00:38:27;;;;;;;8.43;5.18;;;;;;;;;;5062021;28;20273;-71
2022/11/03 00:40:54;;;;;;;6.18;4.78;;;;;;;;;;5062131;28;20223;-71
2022/11/03 00:43:20;;;;;;;11.68;4.97;;;;;;;;;;5062166;28;20197;-71
2022/11/03 00:45:47;;;;;;;9.25;5.28;;;;;;;;;;5061943;28;20204;-71
2022/11/03 00:48:32;;;;;;;9.25;4.90;;;;;;;;;;5061719;28;20200;-71
2022/11/03 00:51:05;;;;;;;9.55;5.03;;;;;;;;;;5062191;28;20199;-71
2022/11/03 00:53:32;;;;;;;8.82;5.50;;;;;;;;;;5061931;28;20224;-71
2022/11/03 00:55:58;;;;;;;8.18;5.40;;;;;;;;;;5061851;28;20215;-71
2022/11/03 00:58:24;;;;;;;9.18;5.32;;;;;;;;;;5061554;28;20212;-71
2022/11/03 01:00:50;;;;;;;9.95;5.10;;;;;;;;;;5061893;28;20303;-71
2022/11/03 01:03:17;;;;;;;8.05;5.03;;;;;;;;;;5061892;28;20205;-71
2022/11/03 01:08:33;;;;;;;10.70;5.05;;;;;;;;;;5061545;28;20253;-71
2022/11/03 01:13:48;;;;;;;10.13;5.68;;;;;;;;;;5061861;28;20416;-71
2022/11/03 01:16:14;;;;;;;10.55;5.38;;;;;;;;;;5061760;28;20244;-71
2022/11/03 01:18:41;;;;;;;13.90;5.18;;;;;;;;;;5061335;28;20212;-71
2022/11/03 01:21:07;;;;;;;11.05;5.13;;;;;;;;;;5061468;28;20417;-71
2022/11/03 01:23:35;;;;;;;7.43;5.22;;;;;;;;;;5061693;28;20203;-71
2022/11/03 01:26:03;;;;;;;9.25;5.93;;;;;;;;;;5061701;28;20421;-71
2022/11/03 01:28:29;;;;;;;9.27;5.47;;;;;;;;;;5061319;28;20431;-71
2022/11/03 01:30:56;;;;;;;5.95;5.10;;;;;;;;;;5061590;28;20193;-71
2022/11/03 01:33:22;;;;;;;10.10;5.38;;;;;;;;;;5061558;28;20394;-71
2022/11/03 01:35:52;;;;;;;7.50;4.70;;;;;;;;;;5061386;28;20204;-71
2022/11/03 01:38:19;;;;;;;10.23;5.20;;;;;;;;;;5061295;28;20197;-71
2022/11/03 01:40:46;;;;;;;7.70;5.00;;;;;;;;;;5063407;28;20543;-71
2022/11/03 01:43:16;;;;;;;6.63;4.43;;;;;;;;;;5065865;28;20247;-71
2022/11/03 01:45:42;;;;;;;6.68;4.82;;;;;;;;;;5065400;28;20212;-71
2022/11/03 01:48:09;;;;;;;7.88;4.43;;;;;;;;;;5065107;28;20527;-71
2022/11/03 01:50:35;;;;;;;7.32;4.90;;;;;;;;;;5065776;28;20193;-71
2022/11/03 01:53:01;;;;;;;6.80;4.68;;;;;;;;;;5065646;28;20314;-71
2022/11/03 01:55:29;;;;;;;5.85;4.63;;;;;;;;;;5065224;28;20196;-71
2022/11/03 01:57:59;;;;;;;6.50;4.70;;;;;;;;;;5065000;28;20522;-71
2022/11/03 02:00:25;;;;;;;5.95;4.25;;;;;;;;;;5064909;28;20224;-71
2022/11/03 02:02:51;;;;;;;8.32;4.88;;;;;;;;;;5065011;28;20496;-71
2022/11/03 02:05:18;;;;;;;7.45;4.85;;;;;;;;;;5065203;28;20500;-71
2022/11/03 02:07:49;;;;;;;6.93;4.97;;;;;;;;;;5064947;28;20197;-71
2022/11/03 02:10:16;;;;;;;6.03;4.38;;;;;;;;;;5065425;28;20209;-71
2022/11/03 02:12:43;;;;;;;5.00;4.50;;;;;;;;;;5064928;28;20197;-71
2022/11/03 02:15:11;;;;;;;5.88;4.70;;;;;;;;;;5064837;28;20198;-71
2022/11/03 02:17:39;;;;;;;7.85;4.75;;;;;;;;;;5064758;28;20291;-71
2022/11/03 02:20:07;;;;;;;8.07;4.68;;;;;;;;;;5065076;28;20427;-71
2022/11/03 02:22:55;;;;;;;9.05;5.25;;;;;;;;;;5064823;28;20389;-71
2022/11/03 02:25:37;;;;;;;11.05;5.63;;;;;;;;;;5064972;28;20197;-71
2022/11/03 02:28:04;;;;;;;6.82;5.13;;;;;;;;;;5064560;28;20224;-71
2022/11/03 02:30:34;;;;;;;10.35;5.15;;;;;;;;;;5064440;28;20200;-71
2022/11/03 02:33:03;;;;;;;7.65;5.35;;;;;;;;;;5064603;28;20197;-71
2022/11/03 02:35:33;;;;;;;7.15;4.93;;;;;;;;;;5064393;28;20205;-71
2022/11/03 02:38:00;;;;;;;8.43;5.65;;;;;;;;;;5064466;28;20201;-71
2022/11/03 02:40:29;;;;;;;8.00;5.82;;;;;;;;;;5064497;28;20213;-71
2022/11/03 02:42:58;;;;;;;7.85;4.93;;;;;;;;;;5064675;28;20204;-71
2022/11/03 02:45:25;;;;;;;8.45;5.72;;;;;;;;;;5064318;28;20193;-71
2022/11/03 02:47:53;;;;;;;7.85;5.43;;;;;;;;;;5063974;28;20197;-71
2022/11/03 02:50:21;;;;;;;6.47;5.75;;;;;;;;;;5064535;28;20211;-71
2022/11/03 02:52:47;;;;;;;8.50;6.07;;;;;;;;;;5063823;28;20197;-71
2022/11/03 02:55:16;;;;;;;7.60;5.68;;;;;;;;;;5064063;28;20189;-71
2022/11/03 02:57:45;;;;;;;8.15;5.18;;;;;;;;;;5063933;28;20197;-71
2022/11/03 03:00:14;;;;;;;9.93;5.53;;;;;;;;;;5063917;28;20209;-71
2022/11/03 03:02:42;;;;;;;8.73;5.40;;;;;;;;;;5064312;28;20384;-71
2022/11/03 03:05:10;;;;;;;7.70;5.30;;;;;;;;;;5064176;28;20228;-71
2022/11/03 03:07:39;;;;;;;11.43;5.20;;;;;;;;;;5063798;28;20204;-71
2022/11/03 03:10:07;;;;;;;5.72;4.82;;;;;;;;;;5064156;28;20204;-71
2022/11/03 03:12:35;;;;;;;13.68;5.70;;;;;;;;;;5063811;28;20215;-71
2022/11/03 03:15:03;;;;;;;8.23;5.95;;;;;;;;;;5063629;28;20201;-71
2022/11/03 03:17:34;;;;;;;7.15;4.97;;;;;;;;;;5063905;28;20215;-71
2022/11/03 03:20:04;;;;;;;10.05;5.18;;;;;;;;;;5063536;28;20205;-71
2022/11/03 03:22:34;;;;;;;8.00;5.47;;;;;;;;;;5063661;28;20548;-71
2022/11/03 03:25:03;;;;;;;10.15;5.78;;;;;;;;;;5063603;28;20394;-71
2022/11/03 03:27:30;;;;;;;7.88;5.13;;;;;;;;;;5063359;28;20217;-71
2022/11/03 03:29:58;;;;;;;9.98;5.47;;;;;;;;;;5063398;28;20209;-71
2022/11/03 03:32:26;;;;;;;12.68;6.47;;;;;;;;;;5063378;28;20200;-71
2022/11/03 03:34:54;;;;;;;10.95;5.85;;;;;;;;;;5063240;28;20211;-71
2022/11/03 03:37:21;;;;;;;11.68;6.25;;;;;;;;;;5063352;28;20197;-71
2022/11/03 03:39:49;;;;;;;12.15;5.80;;;;;;;;;;5063056;28;20208;-71
2022/11/03 03:42:17;;;;;;;12.65;6.10;;;;;;;;;;5063110;28;20235;-71
2022/11/03 03:44:44;;;;;;;9.45;5.95;;;;;;;;;;5063376;28;20394;-71
2022/11/03 03:47:13;;;;;;;7.47;5.40;;;;;;;;;;5063339;28;20193;-71
2022/11/03 03:49:40;;;;;;;10.77;6.10;;;;;;;;;;5062969;28;20389;-71
2022/11/03 03:52:08;;;;;;;8.65;5.68;;;;;;;;;;5063053;28;20193;-71
2022/11/03 03:54:34;;;;;;;9.68;5.95;;;;;;;;;;5062962;28;20242;-71
2022/11/03 03:57:02;;;;;;;8.68;5.90;;;;;;;;;;5063258;28;20205;-71
2022/11/03 03:59:28;;;;;;;11.52;5.85;;;;;;;;;;5062618;28;20227;-71
2022/11/03 04:01:54;;;;;;;10.48;5.65;;;;;;;;;;5062717;28;20228;-71
2022/11/03 04:04:21;;;;;;;10.20;6.15;;;;;;;;;;5062163;28;20504;-71
2022/11/03 04:06:47;;;;;;;10.77;5.35;;;;;;;;;;5062896;28;20201;-71
2022/11/03 04:09:15;;;;;;;9.80;5.85;;;;;;;;;;5062392;28;20204;-71
2022/11/03 04:22:46;;;;;;;9.88;6.47;;;;;;;;;;5044855;28;20240;-71
2022/11/03 04:25:13;;;;;;;10.80;6.07;;;;;;;;;;5062526;28;20400;-71
2022/11/03 04:27:40;;;;;;;6.68;5.50;;;;;;;;;;5062024;28;20231;-71
2022/11/03 04:30:10;;;;;;;11.27;5.78;;;;;;;;;;5062222;28;20201;-71
2022/11/03 04:32:36;;;;;;;9.55;6.32;;;;;;;;;;5062398;28;20377;-71
2022/11/03 04:35:02;;;;;;;11.27;5.72;;;;;;;;;;5062558;28;20496;-71
2022/11/03 04:37:29;;;;;;;12.40;6.07;;;;;;;;;;5062277;28;20513;-71
2022/11/03 04:39:58;;;;;;;12.15;5.90;;;;;;;;;;5061997;28;20197;-71
2022/11/03 04:42:25;;;;;;;10.05;6.38;;;;;;;;;;5062028;28;20220;-71
2022/11/03 04:44:52;;;;;;;11.35;5.80;;;;;;;;;;5062207;28;20263;-71
2022/11/03 04:47:18;;;;;;;13.15;5.57;;;;;;;;;;5062128;28;20208;-71
2022/11/03 04:49:46;;;;;;;10.45;6.13;;;;;;;;;;5062011;28;20196;-71
2022/11/03 04:52:14;;;;;;;12.90;6.32;;;;;;;;;;5062185;28;20193;-71
2022/11/03 04:54:41;;;;;;;12.82;5.55;;;;;;;;;;5061985;28;20207;-71
2022/11/03 04:57:08;;;;;;;7.75;5.10;;;;;;;;;;5061814;28;20197;-71
2022/11/03 04:59:36;;;;;;;8.48;5.60;;;;;;;;;;5061849;28;20620;-71
2022/11/03 05:02:03;;;;;;;6.50;5.32;;;;;;;;;;5061909;28;20221;-71
2022/11/03 05:04:30;;;;;;;10.57;5.97;;;;;;;;;;5061874;28;20208;-71
2022/11/03 05:06:56;;;;;;;14.30;6.30;;;;;;;;;;5062146;28;20240;-71
2022/11/03 05:09:24;;;;;;;6.70;5.40;;;;;;;;;;5061447;28;20234;-71
2022/11/03 05:11:50;;;;;;;9.30;5.60;;;;;;;;;;5062101;28;20201;-71
2022/11/03 05:14:19;;;;;;;11.35;5.32;;;;;;;;;;5061740;28;20201;-71
2022/11/03 05:16:47;;;;;;;6.95;4.90;;;;;;;;;;5061856;28;20203;-71
2022/11/03 05:19:15;;;;;;;8.90;5.55;;;;;;;;;;5061587;28;20228;-71
2022/11/03 05:21:42;;;;;;;7.55;5.47;;;;;;;;;;5061583;28;20481;-71
2022/11/03 05:24:11;;;;;;;7.90;5.63;;;;;;;;;;5061580;28;20240;-71
2022/11/03 05:26:37;;;;;;;5.97;5.18;;;;;;;;;;5061698;28;20200;-71
2022/11/03 05:29:09;;;;;;;9.73;6.00;;;;;;;;;;5061192;28;20263;-71
2022/11/03 05:31:36;;;;;;;5.90;5.25;;;;;;;;;;5061713;28;20221;-71
2022/11/03 05:34:19;;;;;;;10.40;5.63;;;;;;;;;;5061534;28;20232;-71
2022/11/03 05:36:45;;;;;;;6.00;5.43;;;;;;;;;;5061935;28;20496;-71
2022/11/03 05:39:28;;;;;;;8.20;5.57;;;;;;;;;;5061568;28;20204;-71
2022/11/03 05:41:54;;;;;;;7.38;5.72;;;;;;;;;;5061291;28;20212;-71
2022/11/03 05:44:26;;;;;;;12.75;5.95;;;;;;;;;;5061535;28;20387;-70
2022/11/03 05:46:52;;;;;;;8.40;5.70;;;;;;;;;;5061526;28;20245;-71
2022/11/03 05:49:20;;;;;;;7.53;5.38;;;;;;;;;;5061068;28;20197;-71
2022/11/03 05:51:46;;;;;;;8.00;5.65;;;;;;;;;;5061287;28;20211;-73
2022/11/03 05:54:19;;;;;;;9.52;5.85;;;;;;;;;;5061371;28;20205;-72
2022/11/03 05:56:45;;;;;;;6.10;5.38;;;;;;;;;;5061444;28;20197;-72
2022/11/03 05:59:13;;;;;;;10.07;5.63;;;;;;;;;;5061144;28;20388;-72
2022/11/03 06:01:40;;;;;;;8.77;5.95;;;;;;;;;;5061042;28;20228;-72
2022/11/03 06:04:14;;;;;;;11.48;6.60;;;;;;;;;;5061299;28;20197;-72
2022/11/03 06:06:41;;;;;;;11.40;7.47;;;;;;;;;;5061181;28;20500;-73
2022/11/03 06:09:11;;;;;;;11.30;7.00;;;;;;;;;;5060539;28;20205;-73
2022/11/03 06:11:37;;;;;;;12.95;7.38;;;;;;;;;;5060864;28;20197;-72
2022/11/03 06:14:12;;;;;;;12.95;7.30;;;;;;;;;;5060955;28;20203;-72
2022/11/03 06:16:39;;;;;;;8.65;6.90;;;;;;;;;;5060973;28;20221;-72
2022/11/03 06:19:15;;;;;;;13.23;7.43;;;;;;;;;;5060531;28;20205;-72
2022/11/03 06:21:43;;;;;;;12.82;6.85;;;;;;;;;;5060681;28;20221;-72
2022/11/03 06:24:11;;;;;;;11.05;6.70;;;;;;;;;;5060717;28;20205;-72
2022/11/03 06:26:37;;;;;;;15.73;6.20;;;;;;;;;;5062122;28;20374;-72
2022/11/03 06:29:03;;;;;;;12.52;6.28;;;;;;;;;;5064377;28;20225;-72
2022/11/03 06:31:31;;;;;;;14.10;6.43;;;;;;;;;;5064185;28;20204;-72
2022/11/03 06:33:57;;;;;;;8.15;6.28;;;;;;;;;;5064384;28;20387;-72
2022/11/03 06:36:25;;;;;;;9.70;6.30;;;;;;;;;;5064163;28;20211;-72
2022/11/03 06:38:54;;;;;;;8.82;6.35;;;;;;;;;;5063831;28;20197;-72
2022/11/03 06:41:23;;;;;;;8.45;6.35;;;;;;;;;;5063888;28;20531;-72
2022/11/03 06:43:49;;;;;;;9.38;6.20;;;;;;;;;;5064181;28;20200;-72
2022/11/03 06:46:19;;;;;;;12.18;6.30;;;;;;;;;;5064141;28;20197;-72
2022/11/03 06:48:45;;;;;;;7.63;6.53;;;;;;;;;;5052262;28;20209;-71
2022/11/03 06:51:14;;;;;;;12.55;7.25;;;;;;;;;;5054405;28;20404;-71
2022/11/03 06:53:41;;;;;;;13.15;7.75;;;;;;;;;;5049525;28;20217;-71
2022/11/03 06:56:12;;;;;;;21.52;8.90;;;;;;;;;;5046111;28;20281;-71
2022/11/03 06:58:39;;;;;;;15.65;8.68;;;;;;;;;;5040988;28;20409;-71
2022/11/03 07:01:12;;;;;;;33.15;9.60;;;;;;;;;;5053381;28;20209;-63
2022/11/03 07:03:38;;;;;;;15.20;8.55;;;;;;;;;;5052193;28;20224;-61
2022/11/03 07:06:13;;;;;;;14.20;9.85;;;;;;;;;;5035140;28;20218;-61
2022/11/03 07:08:40;;;;;;;16.67;8.48;;;;;;;;;;5047880;28;20600;-61
2022/11/03 07:11:11;;;;;;;17.17;8.27;;;;;;;;;;5059384;28;20316;-61
2022/11/03 07:13:38;;;;;;;14.63;8.70;;;;;;;;;;5045415;28;20213;-61
2022/11/03 07:16:11;;;;;;;16.63;7.47;;;;;;;;;;5057117;28;20216;-60
2022/11/03 07:18:40;;;;;;;15.80;7.75;;;;;;;;;;5056315;28;20221;-61
2022/11/03 07:21:19;;;;;;;20.10;7.90;;;;;;;;;;5057181;28;20759;-61
2022/11/03 07:23:45;;;;;;;12.98;7.68;;;;;;;;;;5057058;28;20574;-61
2022/11/03 07:26:11;;;;;;;17.77;7.97;;;;;;;;;;5050602;28;20492;-61
2022/11/03 07:28:39;;;;;;;20.23;8.52;;;;;;;;;;5049635;28;20237;-61
2022/11/03 07:31:12;;;;;;;10.55;7.75;;;;;;;;;;5054381;28;20213;-61
2022/11/03 07:33:39;;;;;;;11.20;7.82;;;;;;;;;;5042313;28;20210;-61
2022/11/03 07:36:07;;;;;;;20.17;8.43;;;;;;;;;;5045047;28;20217;-61
2022/11/03 07:38:33;;;;;;;17.88;8.10;;;;;;;;;;5036870;28;20432;-61
2022/11/03 07:40:59;;;;;;;12.43;8.18;;;;;;;;;;5039442;28;20511;-61
2022/11/03 07:43:28;;;;;;;14.60;9.80;;;;;;;;;;5042442;28;20279;-61
2022/11/03 07:45:57;;;;;;;13.60;8.90;;;;;;;;;;5039052;28;20221;-62
2022/11/03 07:48:25;;;;;;;16.77;10.05;;;;;;;;;;5039422;28;20213;-61
2022/11/03 07:50:52;;;;;;;19.33;10.68;;;;;;;;;;5049906;28;20454;-61
2022/11/03 07:53:20;;;;;;;14.63;9.15;;;;;;;;;;5046994;28;20209;-61
2022/11/03 07:55:46;;;;;;;16.67;9.68;;;;;;;;;;5036627;28;20390;-62
2022/11/03 07:58:17;;;;;;;11.55;8.60;;;;;;;;;;5041466;28;20520;-61
2022/11/03 08:00:44;;;;;;;14.40;9.13;;;;;;;;;;5055894;28;20217;-62
2022/11/03 08:03:16;;;;;;;16.80;9.48;;;;;;;;;;5055943;28;20302;-61
2022/11/03 08:05:42;;;;;;;13.40;8.82;;;;;;;;;;5050925;28;20217;-61
2022/11/03 08:08:09;;;;;;;12.68;8.45;;;;;;;;;;5035470;28;20213;-62
2022/11/03 08:10:35;;;;;;;12.15;8.23;;;;;;;;;;5049462;28;20425;-62
2022/11/03 08:13:01;;;;;;;12.40;6.88;;;;;;;;;;5055978;28;20409;-62
2022/11/03 08:15:27;;;;;;;8.32;6.80;;;;;;;;;;5040260;28;20280;-62
2022/11/03 08:17:54;;;;;;;9.82;6.65;;;;;;;;;;5043308;28;20217;-61
2022/11/03 08:20:21;;;;;;;7.07;6.15;;;;;;;;;;5041246;28;20214;-62
2022/11/03 08:22:48;;;;;;;11.52;6.65;;;;;;;;;;5038790;28;20580;-62
2022/11/03 08:25:14;;;;;;;12.70;6.50;;;;;;;;;;5035159;28;20390;-63
2022/11/03 08:27:40;;;;;;;8.45;6.43;;;;;;;;;;5044522;28;20537;-62
2022/11/03 08:30:08;;;;;;;10.85;7.22;;;;;;;;;;5035799;28;20214;-62
2022/11/03 08:32:35;;;;;;;9.20;6.93;;;;;;;;;;5035490;28;20484;-63
2022/11/03 08:35:01;;;;;;;8.43;6.63;;;;;;;;;;5043473;28;20216;-63
2022/11/03 08:37:29;;;;;;;8.88;6.80;;;;;;;;;;5056210;28;20213;-62
2022/11/03 08:39:55;;;;;;;8.20;6.70;;;;;;;;;;5056116;28;20565;-62
2022/11/03 08:42:21;;;;;;;14.75;7.18;;;;;;;;;;5055319;28;20251;-63
2022/11/03 08:44:47;;;;;;;10.52;7.20;;;;;;;;;;5052361;28;20213;-62
2022/11/03 08:47:14;;;;;;;10.13;7.82;;;;;;;;;;5051141;28;20532;-62
2022/11/03 08:49:40;;;;;;;11.82;6.80;;;;;;;;;;5055003;28;20224;-62
2022/11/03 08:52:06;;;;;;;9.93;7.38;;;;;;;;;;5044108;28;20219;-62
2022/11/03 08:54:34;;;;;;;10.35;6.70;;;;;;;;;;5049514;28;20240;-62
2022/11/03 08:57:02;;;;;;;8.57;7.10;;;;;;;;;;5042914;28;20213;-63
2022/11/03 08:59:28;;;;;;;13.43;7.28;;;;;;;;;;5038483;28;20221;-62
2022/11/03 09:01:56;;;;;;;8.65;7.10;;;;;;;;;;5043561;28;20217;-63
2022/11/03 09:04:22;;;;;;;9.73;7.57;;;;;;;;;;5034202;28;20214;-63
2022/11/03 09:06:48;;;;;;;11.30;7.35;;;;;;;;;;5048496;28;20221;-62
2022/11/03 09:09:15;;;;;;;10.23;7.20;;;;;;;;;;5048145;28;20274;-63
2022/11/03 09:11:42;;;;;;;12.90;7.05;;;;;;;;;;5054937;28;20219;-64
2022/11/03 09:14:09;;;;;;;11.80;6.40;;;;;;;;;;5054700;28;20458;-62
2022/11/03 09:16:35;;;;;;;10.00;7.10;;;;;;;;;;5035529;28;20233;-62
2022/11/03 09:19:02;;;;;;;8.13;6.28;;;;;;;;;;5051791;28;20221;-62
2022/11/03 09:21:28;;;;;;;8.73;6.65;;;;;;;;;;5054267;28;20219;-63
2022/11/03 09:23:54;;;;;;;9.32;7.15;;;;;;;;;;5047033;28;20237;-63
2022/11/03 09:26:21;;;;;;;12.88;7.75;;;;;;;;;;5035020;28;20213;-62
2022/11/03 09:28:49;;;;;;;8.15;6.72;;;;;;;;;;5047957;28;20221;-63
2022/11/03 09:31:15;;;;;;;11.45;6.78;;;;;;;;;;5035974;28;20316;-63
2022/11/03 09:33:41;;;;;;;7.68;6.13;;;;;;;;;;5052742;28;20209;-65
2022/11/03 09:36:08;;;;;;;11.10;6.88;;;;;;;;;;5055327;28;20437;-64
2022/11/03 09:38:34;;;;;;;10.40;6.18;;;;;;;;;;5034790;28;20308;-60
2022/11/03 09:41:01;;;;;;;7.80;5.93;;;;;;;;;;5051376;28;20475;-61
2022/11/03 09:43:27;;;;;;;10.90;6.47;;;;;;;;;;5054598;28;20232;-61
2022/11/03 09:45:55;;;;;;;13.13;6.57;;;;;;;;;;5044148;28;20216;-61
2022/11/03 09:48:21;;;;;;;9.57;6.25;;;;;;;;;;5051061;28;20208;-61
2022/11/03 09:50:49;;;;;;;9.68;6.22;;;;;;;;;;5054879;28;20209;-61
2022/11/03 09:53:15;;;;;;;9.38;6.75;;;;;;;;;;5055179;28;20224;-62
2022/11/03 09:55:41;;;;;;;12.20;6.88;;;;;;;;;;5047339;28;20212;-63
2022/11/03 09:58:10;;;;;;;10.45;7.95;;;;;;;;;;5046156;28;20214;-60
2022/11/03 10:00:38;;;;;;;11.35;7.32;;;;;;;;;;5053009;28;20213;-61
2022/11/03 10:03:06;;;;;;;11.60;7.90;;;;;;;;;;5040725;28;20454;-62
2022/11/03 10:05:33;;;;;;;14.02;7.45;;;;;;;;;;5049928;28;21133;-61
2022/11/03 10:08:01;;;;;;;10.90;7.75;;;;;;;;;;5058387;28;20213;-61
2022/11/03 10:10:28;;;;;;;11.23;7.13;;;;;;;;;;5053065;28;20240;-61
2022/11/03 10:12:54;;;;;;;11.43;7.20;;;;;;;;;;5059663;28;20484;-61
2022/11/03 10:15:22;;;;;;;12.18;6.97;;;;;;;;;;5049447;28;20515;-62
2022/11/03 10:17:49;;;;;;;12.23;7.68;;;;;;;;;;5056387;28;20213;-61
2022/11/03 10:20:18;;;;;;;11.88;7.53;;;;;;;;;;5057861;28;20211;-61
2022/11/03 10:22:45;;;;;;;13.07;7.25;;;;;;;;;;5054598;28;20728;-61
2022/11/03 10:25:24;;;;;;;10.27;6.80;;;;;;;;;;5039609;28;20413;-64
2022/11/03 10:27:52;;;;;;;11.13;7.20;;;;;;;;;;5038832;28;20241;-62
2022/11/03 10:30:18;;;;;;;8.07;7.22;;;;;;;;;;5048456;28;20215;-61
2022/11/03 10:32:44;;;;;;;12.38;7.95;;;;;;;;;;5053329;28;20210;-61
2022/11/03 10:35:26;;;;;;;9.45;7.28;;;;;;;;;;5058787;28;20213;-61
2022/11/03 10:37:53;;;;;;;15.27;7.70;;;;;;;;;;5048389;28;20213;-62
2022/11/03 10:40:33;;;;;;;10.75;6.78;;;;;;;;;;5053182;28;20220;-61
2022/11/03 10:42:59;;;;;;;16.10;7.93;;;;;;;;;;5038295;28;20433;-61
2022/11/03 10:45:26;;;;;;;8.80;6.45;;;;;;;;;;5037876;28;20218;-62
2022/11/03 10:47:59;;;;;;;11.52;7.25;;;;;;;;;;5051308;28;20213;-62
2022/11/03 10:50:26;;;;;;;8.93;6.88;;;;;;;;;;5054861;28;20214;-61
2022/11/03 10:52:54;;;;;;;16.58;7.05;;;;;;;;;;5055476;28;20209;-61
2022/11/03 10:55:22;;;;;;;10.48;7.05;;;;;;;;;;5057606;28;20222;-61
2022/11/03 10:57:48;;;;;;;15.57;7.05;;;;;;;;;;5057843;28;20225;-61
2022/11/03 11:00:15;;;;;;;12.52;6.82;;;;;;;;;;5045991;28;20213;-61
2022/11/03 11:02:42;;;;;;;8.63;6.38;;;;;;;;;;5041091;28;20213;-62
2022/11/03 11:05:13;;;;;;;11.90;6.65;;;;;;;;;;5052774;28;20216;-61
2022/11/03 11:07:40;;;;;;;8.88;5.38;;;;;;;;;;5056262;28;20562;-62
2022/11/03 11:10:11;;;;;;;8.30;5.07;;;;;;;;;;5048523;28;20268;-62
2022/11/03 11:12:37;;;;;;;9.00;4.80;;;;;;;;;;5039243;28;20216;-62
2022/11/03 11:15:24;;;;;;;10.15;5.68;;;;;;;;;;5038005;28;20415;-61
2022/11/03 11:17:50;;;;;;;8.68;5.72;;;;;;;;;;5056336;28;20212;-62
2022/11/03 11:20:20;;;;;;;7.57;5.43;;;;;;;;;;5056684;28;20213;-62
2022/11/03 11:22:47;;;;;;;8.27;5.38;;;;;;;;;;5055365;28;20615;-61
2022/11/03 11:25:15;;;;;;;10.45;5.28;;;;;;;;;;5039189;28;20213;-62
2022/11/03 11:27:54;;;;;;;10.93;5.13;;;;;;;;;;5036339;28;20414;-62
2022/11/03 11:30:39;;;;;;;5.78;5.18;;;;;;;;;;5036139;28;20513;-61
2022/11/03 11:33:12;;;;;;;12.80;5.80;;;;;;;;;;5047967;28;20197;-62
2022/11/03 11:35:59;;;;;;;8.35;5.53;;;;;;;;;;5051559;28;20213;-61
2022/11/03 11:38:45;;;;;;;12.15;5.25;;;;;;;;;;5020175;28;20233;-64
2022/11/03 11:41:13;;;;;;;7.25;5.18;;;;;;;;;;5059225;28;20205;-64
2022/11/03 11:43:39;;;;;;;8.60;5.22;;;;;;;;;;5058999;28;20237;-64
2022/11/03 11:46:24;;;;;;;7.55;5.03;;;;;;;;;;5042227;28;20400;-64
2022/11/03 11:49:01;;;;;;;9.48;5.32;;;;;;;;;;5046820;28;20213;-63
2022/11/03 11:51:27;;;;;;;5.13;4.70;;;;;;;;;;5057588;28;20244;-63
2022/11/03 11:53:54;;;;;;;5.90;5.20;;;;;;;;;;5050201;28;20231;-63
2022/11/03 11:56:21;;;;;;;8.95;5.20;;;;;;;;;;5055552;28;20244;-63
2022/11/03 11:58:49;;;;;;;10.20;5.13;;;;;;;;;;5054402;28;20219;-61
2022/11/03 12:01:22;;;;;;;11.43;5.55;;;;;;;;;;5048432;28;20213;-61
2022/11/03 12:03:49;;;;;;;5.90;4.60;;;;;;;;;;5055887;28;20236;-61
2022/11/03 12:06:15;;;;;;;5.90;4.32;;;;;;;;;;5040245;28;20422;-62
2022/11/03 12:08:42;;;;;;;9.10;5.15;;;;;;;;;;5035966;28;20548;-62
2022/11/03 12:11:10;;;;;;;10.85;7.97;;;;;;;;;;5046053;28;20522;-61
2022/11/03 12:13:50;;;;;;;18.60;10.63;;;;;;;;;;5056962;28;20252;-61
2022/11/03 12:16:29;;;;;;;12.23;8.32;;;;;;;;;;5055635;28;20448;-61
2022/11/03 12:18:55;;;;;;;8.27;5.95;;;;;;;;;;5055666;28;20233;-61
2022/11/03 12:21:40;;;;;;;7.82;6.00;;;;;;;;;;5047458;28;20338;-62
2022/11/03 12:24:21;;;;;;;8.35;6.05;;;;;;;;;;5044028;28;20247;-62
2022/11/03 12:26:47;;;;;;;9.02;6.95;;;;;;;;;;5037467;28;20544;-62
2022/11/03 12:29:15;;;;;;;10.13;6.07;;;;;;;;;;5035064;28;20234;-62
2022/11/03 12:31:41;;;;;;;12.00;5.60;;;;;;;;;;5051001;28;20217;-62
2022/11/03 12:34:07;;;;;;;8.82;5.90;;;;;;;;;;5044697;28;20210;-62
2022/11/03 12:36:34;;;;;;;9.00;5.97;;;;;;;;;;5040600;28;20213;-62
2022/11/03 12:39:00;;;;;;;11.43;6.45;;;;;;;;;;5034388;28;20567;-62
2022/11/03 12:41:26;;;;;;;14.80;6.82;;;;;;;;;;5038674;28;20205;-61
2022/11/03 12:43:54;;;;;;;10.75;6.30;;;;;;;;;;5043673;28;20229;-62
2022/11/03 12:46:22;;;;;;;12.15;6.97;;;;;;;;;;5048243;28;20252;-62
2022/11/03 12:48:49;;;;;;;9.98;6.35;;;;;;;;;;5037992;28;20513;-62
2022/11/03 12:51:16;;;;;;;8.45;6.40;;;;;;;;;;5036324;28;20218;-62
2022/11/03 12:53:42;;;;;;;8.32;6.13;;;;;;;;;;5055124;28;20209;-61
2022/11/03 12:56:09;;;;;;;8.77;5.70;;;;;;;;;;5054071;28;20213;-62
2022/11/03 12:58:36;;;;;;;11.30;6.05;;;;;;;;;;5038952;28;20213;-62
2022/11/03 13:01:03;;;;;;;11.13;6.05;;;;;;;;;;5048596;28;20219;-61
2022/11/03 13:03:31;;;;;;;8.65;5.72;;;;;;;;;;5035301;28;20483;-62
2022/11/03 13:05:57;;;;;;;6.43;5.82;;;;;;;;;;5034041;28;20459;-61
2022/11/03 13:08:24;;;;;;;10.82;5.95;;;;;;;;;;5040767;28;20232;-61
2022/11/03 13:10:50;;;;;;;7.93;6.00;;;;;;;;;;5034803;28;20232;-61
2022/11/03 13:13:16;;;;;;;9.23;5.90;;;;;;;;;;5035471;28;20384;-61
2022/11/03 13:15:43;;;;;;;11.15;6.15;;;;;;;;;;5055732;28;20212;-61
2022/11/03 13:18:09;;;;;;;14.77;6.72;;;;;;;;;;5054772;28;20263;-61
2022/11/03 13:20:37;;;;;;;11.25;6.63;;;;;;;;;;5055740;28;20213;-62
2022/11/03 13:23:03;;;;;;;10.38;6.53;;;;;;;;;;5054973;28;20209;-62
2022/11/03 13:25:30;;;;;;;8.40;5.82;;;;;;;;;;5055348;28;20577;-62
2022/11/03 13:27:56;;;;;;;10.50;5.80;;;;;;;;;;5054950;28;20243;-62
2022/11/03 13:30:23;;;;;;;7.47;5.93;;;;;;;;;;5052904;28;20271;-62
2022/11/03 13:32:49;;;;;;;8.10;5.93;;;;;;;;;;5044663;28;20212;-62
2022/11/03 13:35:16;;;;;;;9.70;6.57;;;;;;;;;;5042868;28;20559;-62
2022/11/03 13:37:43;;;;;;;9.48;6.35;;;;;;;;;;5055264;28;20411;-62
2022/11/03 13:40:11;;;;;;;9.38;6.88;;;;;;;;;;5057675;28;20213;-62
2022/11/03 13:42:37;;;;;;;15.77;6.97;;;;;;;;;;5044046;28;20205;-62
2022/11/03 13:45:04;;;;;;;9.43;6.75;;;;;;;;;;5045325;28;20241;-61
2022/11/03 13:47:30;;;;;;;12.50;7.18;;;;;;;;;;5059639;28;20209;-61
2022/11/03 13:49:59;;;;;;;12.57;6.07;;;;;;;;;;5046075;28;20213;-61
2022/11/03 13:52:25;;;;;;;10.40;6.60;;;;;;;;;;5048455;28;20435;-61
2022/11/03 13:54:53;;;;;;;12.73;6.97;;;;;;;;;;5055005;28;20208;-61
2022/11/03 13:57:20;;;;;;;14.10;7.47;;;;;;;;;;5056909;28;20213;-62
2022/11/03 13:59:46;;;;;;;6.97;6.03;;;;;;;;;;5050758;28;20240;-62
2022/11/03 14:02:13;;;;;;;11.73;6.85;;;;;;;;;;5040220;28;20213;-62
2022/11/03 14:04:39;;;;;;;16.88;6.63;;;;;;;;;;5038227;28;20226;-64
2022/11/03 14:07:06;;;;;;;11.95;6.65;;;;;;;;;;5048599;28;20224;-61
2022/11/03 14:09:32;;;;;;;12.02;6.60;;;;;;;;;;5037963;28;20396;-62
2022/11/03 14:14:44;;;;;;;13.63;7.15;;;;;;;;;;5043294;28;20534;-60
2022/11/03 14:17:11;;;;;;;13.02;6.53;;;;;;;;;;5048262;28;20217;-61
2022/11/03 14:19:37;;;;;;;16.35;6.53;;;;;;;;;;5038743;28;20217;-63
2022/11/03 14:22:03;;;;;;;15.30;6.97;;;;;;;;;;5038728;28;20551;-63
2022/11/03 14:24:29;;;;;;;12.65;6.68;;;;;;;;;;5041810;28;20578;-63
2022/11/03 14:26:56;;;;;;;14.45;6.60;;;;;;;;;;5058150;28;20539;-63
2022/11/03 14:29:23;;;;;;;12.95;6.32;;;;;;;;;;5057748;28;20229;-61
2022/11/03 14:31:50;;;;;;;17.67;9.13;;;;;;;;;;5058062;28;20540;-64
2022/11/03 14:34:16;;;;;;;14.45;8.23;;;;;;;;;;5059582;28;20205;-64
2022/11/03 14:36:42;;;;;;;11.20;7.60;;;;;;;;;;5056777;28;20213;-64
2022/11/03 14:39:08;;;;;;;14.48;8.48;;;;;;;;;;5049213;28;20209;-64
2022/11/03 14:44:19;;;;;;;18.55;8.65;;;;;;;;;;5039573;28;20267;-64
2022/11/03 14:46:46;;;;;;;13.82;8.32;;;;;;;;;;5054917;28;20215;-64
2022/11/03 14:49:13;;;;;;;17.85;8.57;;;;;;;;;;5059255;28;20216;-64
2022/11/03 14:51:39;;;;;;;15.82;8.40;;;;;;;;;;5051351;28;20555;-64
2022/11/03 14:54:05;;;;;;;15.80;8.18;;;;;;;;;;5044201;28;20200;-66
2022/11/03 14:56:31;;;;;;;14.07;7.72;;;;;;;;;;5059599;28;20380;-64
2022/11/03 14:58:58;;;;;;;16.67;8.35;;;;;;;;;;5058403;28;20213;-64
2022/11/03 15:01:24;;;;;;;12.18;7.53;;;;;;;;;;5059850;28;20216;-64
2022/11/03 15:03:52;;;;;;;12.73;7.00;;;;;;;;;;5041013;28;20566;-64